createdAt,value
2023-03-26T00:01:16.716Z,8.21
2023-03-26T00:03:47.377Z,8.15
2023-03-26T00:06:17.629Z,8.09
2023-03-26T00:08:45.898Z,7.98
2023-03-26T00:11:14.343Z,8.04
2023-03-26T00:13:43.937Z,8.03
2023-03-26T00:16:16.869Z,7.93
2023-03-26T00:18:44.316Z,7.74
2023-03-26T00:21:13.959Z,7.70
2023-03-26T00:23:41.711Z,7.63
2023-03-26T00:26:11.350Z,7.78
2023-03-26T00:28:40.723Z,7.79
2023-03-26T00:31:09.645Z,7.52
2023-03-26T00:33:40.928Z,7.64
2023-03-26T00:36:11.114Z,7.68
2023-03-26T00:38:41.715Z,7.66
2023-03-26T00:41:18.031Z,7.74
2023-03-26T00:43:49.048Z,7.82
2023-03-26T00:46:15.992Z,7.92
2023-03-26T00:48:45.923Z,7.90
2023-03-26T00:51:15.766Z,7.96
2023-03-26T00:53:44.988Z,7.89
2023-03-26T00:56:12.413Z,7.94
2023-03-26T00:58:40.540Z,7.96
2023-03-26T01:01:16.583Z,7.88
2023-03-26T01:04:00.739Z,7.82
2023-03-26T01:06:36.194Z,7.79
2023-03-26T01:09:07.498Z,7.84
2023-03-26T01:11:36.107Z,7.81
2023-03-26T01:14:07.493Z,7.78
2023-03-26T01:16:47.326Z,7.75
2023-03-26T01:19:26.990Z,7.65
2023-03-26T01:21:53.741Z,7.67
2023-03-26T01:24:20.969Z,7.56
2023-03-26T01:26:54.193Z,7.60
2023-03-26T01:29:29.849Z,7.57
2023-03-26T01:32:18.923Z,7.57
2023-03-26T01:35:04.853Z,7.67
2023-03-26T01:37:42.775Z,7.69
2023-03-26T01:40:23.802Z,7.66
2023-03-26T01:42:56.619Z,7.67
2023-03-26T01:45:27.395Z,7.66
2023-03-26T01:47:54.797Z,7.70
2023-03-26T01:50:21.776Z,7.61
2023-03-26T01:52:48.500Z,7.75
2023-03-26T01:55:15.187Z,7.76
2023-03-26T02:00:57.670Z,7.88
2023-03-26T02:03:32.614Z,7.85
2023-03-26T02:06:18.140Z,7.89
2023-03-26T02:08:51.065Z,7.90
2023-03-26T02:11:19.984Z,7.89
2023-03-26T02:13:46.996Z,7.87
2023-03-26T02:16:16.703Z,7.88
2023-03-26T02:18:45.218Z,7.87
2023-03-26T02:21:20.447Z,7.83
2023-03-26T02:23:57.968Z,7.80
2023-03-26T02:26:25.216Z,7.81
2023-03-26T02:29:01.742Z,7.84
2023-03-26T02:31:30.425Z,7.86
2023-03-26T02:33:57.414Z,7.64
2023-03-26T02:36:27.704Z,7.37
2023-03-26T02:39:00.618Z,7.40
2023-03-26T02:41:30.058Z,7.80
2023-03-26T02:44:00.923Z,7.93
2023-03-26T02:46:46.282Z,7.72
2023-03-26T02:49:34.073Z,7.62
2023-03-26T02:52:01.269Z,7.56
2023-03-26T02:54:28.039Z,7.67
2023-03-26T02:57:12.173Z,8.00
2023-03-26T03:00:02.742Z,7.99
2023-03-26T03:02:38.623Z,7.78
2023-03-26T03:05:28.669Z,7.62
2023-03-26T03:08:10.344Z,7.53
2023-03-26T03:10:42.617Z,7.57
2023-03-26T03:13:16.653Z,7.55
2023-03-26T03:15:44.276Z,7.58
2023-03-26T03:18:11.304Z,7.58
2023-03-26T03:20:38.172Z,7.58
2023-03-26T03:23:04.956Z,7.53
2023-03-26T03:25:32.688Z,7.52
2023-03-26T03:28:00.235Z,7.59
2023-03-26T03:30:26.931Z,7.57
2023-03-26T03:33:15.587Z,7.62
2023-03-26T03:35:42.958Z,7.64
2023-03-26T03:38:11.161Z,7.62
2023-03-26T03:40:46.799Z,7.62
2023-03-26T03:43:14.428Z,7.64
2023-03-26T03:46:04.078Z,7.65
2023-03-26T03:48:38.410Z,7.66
2023-03-26T03:51:06.832Z,7.67
2023-03-26T03:53:46.443Z,7.66
2023-03-26T03:56:19.278Z,7.67
2023-03-26T03:59:18.359Z,7.68
2023-03-26T04:01:47.021Z,7.70
2023-03-26T04:04:32.792Z,7.69
2023-03-26T04:07:01.898Z,7.70
2023-03-26T04:09:36.261Z,7.72
2023-03-26T04:12:11.137Z,7.73
2023-03-26T04:14:58.747Z,7.72
2023-03-26T04:17:25.800Z,7.75
2023-03-26T04:19:55.263Z,7.73
2023-03-26T04:22:36.671Z,7.75
2023-03-26T04:25:07.791Z,7.74
2023-03-26T04:27:45.094Z,7.76
2023-03-26T04:30:34.049Z,7.77
2023-03-26T04:33:15.702Z,7.76
2023-03-26T04:35:45.675Z,7.78
2023-03-26T04:38:16.925Z,7.77
2023-03-26T04:40:47.575Z,7.77
2023-03-26T04:43:35.733Z,8.16
2023-03-26T04:46:05.219Z,8.20
2023-03-26T04:48:41.181Z,8.26
2023-03-26T04:51:10.271Z,8.29
2023-03-26T04:53:37.224Z,8.30
2023-03-26T04:56:45.801Z,8.31
2023-03-26T04:59:30.495Z,8.35
2023-03-26T05:02:00.192Z,8.38
2023-03-26T05:04:29.746Z,8.40
2023-03-26T05:06:58.549Z,8.39
2023-03-26T05:09:40.982Z,8.41
2023-03-26T05:12:13.086Z,8.15
2023-03-26T05:15:03.042Z,8.31
2023-03-26T05:17:41.904Z,8.39
2023-03-26T05:20:20.989Z,8.33
2023-03-26T05:22:49.298Z,8.35
2023-03-26T05:25:23.005Z,8.45
2023-03-26T05:27:49.748Z,8.48
2023-03-26T05:30:20.465Z,8.55
2023-03-26T05:32:52.035Z,8.57
2023-03-26T05:35:23.846Z,8.53
2023-03-26T05:37:51.619Z,8.55
2023-03-26T05:40:22.071Z,8.63
2023-03-26T05:42:54.277Z,8.68
2023-03-26T05:45:44.220Z,8.68
2023-03-26T05:48:26.027Z,8.65
2023-03-26T05:50:55.499Z,8.67
2023-03-26T05:53:23.700Z,8.68
2023-03-26T05:56:13.565Z,8.66
2023-03-26T05:58:58.934Z,8.39
2023-03-26T06:01:45.093Z,8.20
2023-03-26T06:04:46.929Z,8.21
2023-03-26T06:07:29.176Z,8.15
2023-03-26T06:10:09.542Z,8.06
2023-03-26T06:12:37.151Z,8.00
2023-03-26T06:15:05.907Z,7.98
2023-03-26T06:17:42.755Z,8.40
2023-03-26T06:20:28.659Z,8.60
2023-03-26T06:22:56.190Z,8.59
2023-03-26T06:25:41.989Z,8.54
2023-03-26T06:28:27.181Z,8.57
2023-03-26T06:31:05.736Z,8.64
2023-03-26T06:33:53.391Z,8.67
2023-03-26T06:36:20.210Z,8.65
2023-03-26T06:38:49.424Z,8.71
2023-03-26T06:41:16.440Z,8.78
2023-03-26T06:43:56.857Z,8.75
2023-03-26T06:46:42.320Z,8.79
2023-03-26T06:49:29.658Z,8.84
2023-03-26T06:52:15.107Z,8.82
2023-03-26T06:55:11.103Z,8.79
2023-03-26T06:57:58.291Z,8.75
2023-03-26T07:00:43.226Z,8.70
2023-03-26T07:03:28.991Z,8.68
2023-03-26T07:06:14.191Z,8.74
2023-03-26T07:08:59.635Z,8.79
2023-03-26T07:11:44.961Z,8.86
2023-03-26T07:14:31.433Z,8.78
2023-03-26T07:17:31.219Z,8.81
2023-03-26T07:20:12.395Z,8.82
2023-03-26T07:22:40.021Z,8.85
2023-03-26T07:25:07.828Z,8.88
2023-03-26T07:28:20.911Z,8.91
2023-03-26T07:31:24.447Z,8.93
2023-03-26T07:34:07.784Z,8.97
2023-03-26T07:37:03.687Z,9.06
2023-03-26T07:39:58.870Z,9.02
2023-03-26T07:43:06.978Z,9.01
2023-03-26T07:46:04.022Z,9.01
2023-03-26T07:48:55.159Z,8.97
2023-03-26T07:51:36.292Z,8.92
2023-03-26T07:54:10.599Z,8.85
2023-03-26T07:56:51.114Z,8.84
2023-03-26T07:59:55.313Z,8.77
2023-03-26T08:02:50.207Z,8.54
2023-03-26T08:06:03.173Z,8.47
2023-03-26T08:09:06.202Z,8.42
2023-03-26T08:12:18.524Z,8.45
2023-03-26T08:14:59.496Z,8.50
2023-03-26T08:17:38.211Z,8.41
2023-03-26T08:20:17.072Z,8.34
2023-03-26T08:22:50.936Z,8.44
2023-03-26T08:25:19.845Z,8.49
2023-03-26T08:28:05.379Z,8.36
2023-03-26T08:30:33.024Z,8.33
2023-03-26T08:33:05.325Z,8.46
2023-03-26T08:35:33.495Z,8.54
2023-03-26T08:38:00.563Z,8.59
2023-03-26T08:41:08.824Z,8.67
2023-03-26T08:44:06.402Z,8.61
2023-03-26T08:47:01.261Z,8.63
2023-03-26T08:50:01.940Z,8.69
2023-03-26T08:52:34.490Z,8.60
2023-03-26T08:55:12.734Z,8.69
2023-03-26T08:58:09.050Z,8.71
2023-03-26T09:01:11.145Z,8.82
2023-03-26T09:04:06.558Z,8.90
2023-03-26T09:06:58.554Z,9.01
2023-03-26T09:09:59.104Z,9.11
2023-03-26T09:12:28.739Z,9.02
2023-03-26T09:15:23.168Z,9.16
2023-03-26T09:18:08.587Z,9.37
2023-03-26T09:20:48.508Z,9.54
2023-03-26T09:23:48.679Z,9.45
2023-03-26T09:26:19.103Z,9.41
2023-03-26T09:28:51.727Z,9.40
2023-03-26T09:32:00.610Z,9.53
2023-03-26T09:34:59.694Z,9.64
2023-03-26T09:37:56.844Z,9.77
2023-03-26T09:40:40.635Z,9.88
2023-03-26T09:43:34.948Z,10.13
2023-03-26T09:46:04.958Z,10.28
2023-03-26T09:48:47.682Z,10.37
2023-03-26T09:51:25.633Z,10.52
2023-03-26T09:54:06.403Z,10.71
2023-03-26T09:56:39.697Z,10.65
2023-03-26T09:59:44.021Z,10.88
2023-03-26T10:02:46.745Z,10.85
2023-03-26T10:05:20.661Z,10.67
2023-03-26T10:08:20.517Z,10.83
2023-03-26T10:11:06.268Z,11.02
2023-03-26T10:20:19.751Z,11.19
2023-03-26T10:22:56.340Z,11.41
2023-03-26T10:25:31.172Z,11.93
2023-03-26T10:28:13.691Z,12.13
2023-03-26T10:31:08.035Z,12.32
2023-03-26T10:33:50.173Z,12.27
2023-03-26T10:36:22.894Z,11.73
2023-03-26T10:39:09.631Z,11.75
2023-03-26T10:41:56.305Z,11.86
2023-03-26T10:45:01.164Z,12.51
2023-03-26T10:47:49.098Z,12.25
2023-03-26T11:09:12.372Z,13.24
2023-03-26T11:11:45.674Z,13.41
2023-03-26T11:14:31.772Z,13.55
2023-03-26T11:17:39.580Z,14.06
2023-03-26T11:20:17.553Z,14.88
2023-03-26T11:23:12.279Z,15.42
2023-03-26T11:25:47.998Z,16.26
2023-03-26T11:29:03.069Z,16.08
2023-03-26T11:31:57.452Z,15.83
2023-03-26T11:34:48.099Z,14.65
2023-03-26T11:37:28.006Z,14.08
2023-03-26T11:39:57.026Z,14.15
2023-03-26T11:42:24.917Z,14.46
2023-03-26T11:44:55.843Z,14.33
2023-03-26T11:47:30.231Z,14.10
2023-03-26T11:49:57.914Z,13.59
2023-03-26T11:52:26.886Z,13.14
2023-03-26T11:54:54.368Z,12.92
2023-03-26T11:57:23.374Z,12.14
2023-03-26T11:59:57.546Z,12.26
2023-03-26T12:02:30.040Z,12.19
2023-03-26T12:05:15.384Z,11.99
2023-03-26T12:07:46.806Z,11.76
2023-03-26T12:10:39.367Z,11.44
2023-03-26T12:13:21.374Z,11.24
2023-03-26T12:15:48.258Z,11.16
2023-03-26T12:18:25.203Z,11.06
2023-03-26T12:21:13.909Z,10.70
2023-03-26T12:24:01.713Z,10.27
2023-03-26T12:26:37.817Z,10.21
2023-03-26T12:29:13.340Z,10.57
2023-03-26T12:31:56.645Z,11.20
2023-03-26T12:34:37.603Z,11.83
2023-03-26T12:37:06.405Z,12.11
2023-03-26T12:40:09.516Z,12.50
2023-03-26T12:44:46.700Z,12.24
2023-03-26T12:45:24.702Z,12.71
2023-03-26T12:47:59.421Z,12.82
2023-03-26T12:50:36.536Z,12.52
2023-03-26T12:53:15.094Z,12.27
2023-03-26T12:56:01.942Z,12.06
2023-03-26T12:58:51.626Z,12.23
2023-03-26T13:01:52.980Z,12.10
2023-03-26T13:04:38.181Z,12.55
2023-03-26T13:07:34.274Z,12.88
2023-03-26T13:10:08.709Z,12.55
2023-03-26T13:13:13.525Z,12.33
2023-03-26T13:15:47.759Z,12.35
2023-03-26T13:18:23.507Z,12.61
2023-03-26T13:21:00.310Z,12.89
2023-03-26T13:23:45.648Z,13.05
2023-03-26T13:26:40.609Z,13.16
2023-03-26T13:29:26.395Z,13.29
2023-03-26T13:32:24.403Z,13.24
2023-03-26T13:35:24.627Z,13.03
2023-03-26T13:37:58.866Z,12.85
2023-03-26T13:40:36.665Z,12.72
2023-03-26T13:43:06.386Z,12.63
2023-03-26T13:45:57.997Z,12.84
2023-03-26T13:48:28.262Z,13.02
2023-03-26T13:51:09.607Z,13.46
2023-03-26T13:53:53.566Z,13.26
2023-03-26T13:56:26.213Z,13.07
2023-03-26T13:58:58.091Z,12.94
2023-03-26T14:01:35.023Z,12.95
2023-03-26T14:04:08.073Z,12.89
2023-03-26T14:06:43.607Z,12.86
2023-03-26T14:09:57.350Z,12.90
2023-03-26T14:12:51.953Z,12.90
2023-03-26T14:15:30.157Z,12.96
2023-03-26T14:17:59.064Z,12.89
2023-03-26T14:21:03.491Z,13.01
2023-03-26T14:24:02.154Z,12.72
2023-03-26T14:26:46.601Z,12.60
2023-03-26T14:29:30.236Z,12.72
2023-03-26T14:32:29.934Z,12.44
2023-03-26T14:35:04.959Z,12.50
2023-03-26T14:37:58.705Z,12.44
2023-03-26T14:40:40.667Z,12.20
2023-03-26T14:43:10.046Z,12.32
2023-03-26T14:45:51.594Z,11.95
2023-03-26T14:48:36.900Z,11.31
2023-03-26T14:51:23.574Z,10.82
2023-03-26T14:53:53.490Z,10.11
2023-03-26T14:56:43.950Z,9.78
2023-03-26T14:59:22.854Z,9.48
2023-03-26T15:02:08.385Z,9.34
2023-03-26T15:04:53.716Z,9.42
2023-03-26T15:07:57.981Z,9.50
2023-03-26T15:11:02.363Z,9.61
2023-03-26T15:13:44.965Z,9.57
2023-03-26T15:16:37.070Z,9.39
2023-03-26T15:19:41.242Z,9.08
2023-03-26T15:22:25.599Z,9.21
2023-03-26T15:25:17.958Z,9.27
2023-03-26T15:28:22.477Z,9.06
2023-03-26T15:30:52.288Z,8.86
2023-03-26T15:33:47.189Z,8.93
2023-03-26T15:36:41.427Z,8.93
2023-03-26T15:39:15.035Z,8.89
2023-03-26T15:41:45.646Z,8.67
2023-03-26T15:44:25.209Z,8.46
2023-03-26T15:47:26.620Z,8.48
2023-03-26T15:49:53.950Z,8.33
2023-03-26T15:52:28.540Z,8.40
2023-03-26T15:55:16.772Z,8.73
2023-03-26T15:57:44.636Z,8.54
2023-03-26T16:00:23.830Z,8.49
2023-03-26T16:02:59.595Z,8.60
2023-03-26T16:05:45.006Z,8.57
2023-03-26T16:08:21.217Z,8.29
2023-03-26T16:11:00.558Z,8.16
2023-03-26T16:13:41.216Z,8.40
2023-03-26T16:16:14.620Z,8.53
2023-03-26T16:18:54.945Z,8.45
2023-03-26T16:21:36.871Z,8.48
2023-03-26T16:24:03.573Z,8.36
2023-03-26T16:26:58.842Z,8.46
2023-03-26T16:29:28.661Z,8.31
2023-03-26T16:32:07.792Z,8.20
2023-03-26T16:34:39.026Z,8.35
2023-03-26T16:37:50.226Z,8.36
2023-03-26T16:40:20.989Z,8.27
2023-03-26T16:43:12.204Z,8.43
2023-03-26T16:46:20.127Z,8.29
2023-03-26T16:48:57.645Z,8.46
2023-03-26T16:51:39.891Z,8.34
2023-03-26T16:54:24.839Z,8.35
2023-03-26T16:56:59.980Z,8.23
2023-03-26T17:00:05.344Z,8.28
2023-03-26T17:02:42.831Z,8.16
2023-03-26T17:05:21.212Z,8.11
2023-03-26T17:08:14.012Z,8.08
2023-03-26T17:11:02.224Z,8.24
2023-03-26T17:13:50.502Z,7.98
2023-03-26T17:16:29.094Z,8.15
2023-03-26T17:19:08.748Z,8.20
2023-03-26T17:22:02.598Z,7.90
2023-03-26T17:24:49.429Z,8.06
2023-03-26T17:28:22.222Z,8.06
2023-03-26T17:31:16.594Z,7.98
2023-03-26T17:33:43.797Z,8.04
2023-03-26T17:36:13.646Z,7.96
2023-03-26T17:38:40.395Z,7.99
2023-03-26T17:41:15.346Z,8.07
2023-03-26T17:43:46.259Z,8.20
2023-03-26T17:46:22.439Z,8.25
2023-03-26T17:49:12.155Z,8.05
2023-03-26T17:51:59.113Z,8.14
2023-03-26T17:54:47.262Z,8.06
2023-03-26T17:57:22.995Z,8.16
2023-03-26T17:59:52.125Z,8.16
2023-03-26T18:02:22.650Z,8.11
2023-03-26T18:04:51.318Z,8.23
2023-03-26T18:07:54.599Z,8.09
2023-03-26T18:10:52.166Z,8.24
2023-03-26T18:13:26.146Z,8.28
2023-03-26T18:16:11.319Z,8.18
2023-03-26T18:18:50.676Z,8.10
2023-03-26T18:21:28.655Z,8.26
2023-03-26T18:23:59.863Z,8.31
2023-03-26T18:26:36.924Z,8.33
2023-03-26T18:29:25.308Z,8.20
2023-03-26T18:32:03.717Z,8.12
2023-03-26T18:34:34.198Z,8.06
2023-03-26T18:37:18.213Z,8.07
2023-03-26T18:40:11.873Z,8.09
2023-03-26T18:42:41.125Z,8.05
2023-03-26T18:45:12.577Z,8.14
2023-03-26T18:47:40.104Z,8.18
2023-03-26T18:50:08.153Z,8.09
2023-03-26T18:52:34.903Z,8.24
2023-03-26T18:55:02.725Z,8.13
2023-03-26T18:57:30.326Z,8.22
2023-03-26T19:00:10.398Z,8.02
2023-03-26T19:02:38.853Z,8.06
2023-03-26T19:05:06.172Z,7.96
2023-03-26T19:07:33.306Z,7.95
2023-03-26T19:10:00.482Z,7.80
2023-03-26T19:12:33.369Z,7.83
2023-03-26T19:15:08.103Z,7.75
2023-03-26T19:17:49.611Z,7.72
2023-03-26T19:20:23.189Z,7.76
2023-03-26T19:22:50.771Z,7.85
2023-03-26T19:25:30.305Z,7.76
2023-03-26T19:27:57.854Z,7.62
2023-03-26T19:30:36.795Z,7.65
2023-03-26T19:33:12.853Z,7.66
2023-03-26T19:35:41.499Z,7.66
2023-03-26T19:38:29.386Z,7.73
2023-03-26T19:40:57.940Z,7.87
2023-03-26T19:43:29.175Z,7.90
2023-03-26T19:45:59.653Z,7.72
2023-03-26T19:48:45.460Z,7.75
2023-03-26T19:51:28.517Z,7.77
2023-03-26T19:53:59.016Z,7.69
2023-03-26T19:56:25.969Z,7.47
2023-03-26T19:58:52.908Z,7.50
2023-03-26T20:01:26.012Z,7.67
2023-03-26T20:03:58.126Z,7.56
2023-03-26T20:06:41.719Z,7.52
2023-03-26T20:09:11.579Z,7.43
2023-03-26T20:11:39.916Z,7.47
2023-03-26T20:14:15.642Z,7.66
2023-03-26T20:16:45.461Z,7.51
2023-03-26T20:19:14.517Z,7.44
2023-03-26T20:21:41.814Z,7.42
2023-03-26T20:24:17.192Z,7.58
2023-03-26T20:26:47.478Z,7.37
2023-03-26T20:29:14.937Z,7.44
2023-03-26T20:31:42.285Z,7.37
2023-03-26T20:34:22.476Z,7.31
2023-03-26T20:36:55.124Z,7.38
2023-03-26T20:39:25.617Z,7.18
2023-03-26T20:41:53.917Z,7.19
2023-03-26T20:44:22.108Z,7.24
2023-03-26T20:46:49.910Z,7.09
2023-03-26T20:49:18.436Z,7.04
2023-03-26T20:51:45.825Z,7.02
2023-03-26T20:54:18.284Z,7.06
2023-03-26T20:56:45.877Z,6.75
2023-03-26T20:59:14.874Z,6.79
2023-03-26T21:01:41.698Z,6.84
2023-03-26T21:04:12.275Z,6.99
2023-03-26T21:06:42.395Z,6.99
2023-03-26T21:09:15.062Z,7.13
2023-03-26T21:12:02.812Z,7.11
2023-03-26T21:14:39.253Z,7.31
2023-03-26T21:17:11.558Z,7.42
2023-03-26T21:19:38.367Z,7.45
2023-03-26T21:22:17.827Z,7.39
2023-03-26T21:25:02.315Z,7.46
2023-03-26T21:27:44.359Z,7.46
2023-03-26T21:30:14.594Z,7.48
2023-03-26T21:32:42.699Z,7.36
2023-03-26T21:35:10.163Z,7.30
2023-03-26T21:37:37.773Z,7.17
2023-03-26T21:40:14.973Z,7.08
2023-03-26T21:42:42.665Z,7.15
2023-03-26T21:45:10.005Z,7.12
2023-03-26T21:47:36.983Z,7.04
2023-03-26T21:50:04.836Z,7.03
2023-03-26T21:52:32.175Z,6.87
2023-03-26T21:55:00.992Z,6.91
2023-03-26T21:58:07.874Z,6.93
2023-03-26T22:00:44.568Z,6.91
2023-03-26T22:03:25.588Z,6.94
2023-03-26T22:06:00.311Z,6.84
2023-03-26T22:08:31.277Z,6.94
2023-03-26T22:10:58.225Z,6.87
2023-03-26T22:13:25.133Z,6.96
2023-03-26T22:15:51.894Z,6.88
2023-03-26T22:18:21.827Z,6.83
2023-03-26T22:20:49.350Z,6.82
2023-03-26T22:23:16.958Z,6.75
2023-03-26T22:25:47.216Z,6.70
2023-03-26T22:28:17.029Z,6.87
2023-03-26T22:30:44.027Z,6.90
2023-03-26T22:33:12.465Z,7.00
2023-03-26T22:35:41.336Z,6.92
2023-03-26T22:38:08.171Z,7.02
2023-03-26T22:40:35.112Z,7.13
2023-03-26T22:43:02.084Z,7.09
2023-03-26T22:45:28.875Z,6.89
2023-03-26T22:48:03.033Z,6.95
2023-03-26T22:50:31.342Z,6.99
2023-03-26T22:52:58.614Z,6.85
2023-03-26T22:55:28.522Z,6.81
2023-03-26T22:57:56.213Z,7.01
2023-03-26T23:00:23.253Z,6.80
2023-03-26T23:02:50.221Z,6.76
2023-03-26T23:05:19.696Z,6.81
2023-03-26T23:07:46.846Z,6.97
2023-03-26T23:10:14.055Z,6.96
2023-03-26T23:12:42.149Z,6.98
2023-03-26T23:15:10.041Z,7.08
2023-03-26T23:17:37.949Z,6.97
2023-03-26T23:20:15.255Z,6.98
2023-03-26T23:22:43.249Z,6.81
2023-03-26T23:25:11.258Z,6.74
2023-03-26T23:27:38.394Z,6.97
2023-03-26T23:30:05.660Z,6.87
2023-03-26T23:32:33.323Z,6.71
2023-03-26T23:35:00.013Z,6.85
2023-03-26T23:37:26.977Z,6.81
2023-03-26T23:39:53.811Z,6.93
2023-03-26T23:42:28.624Z,7.02
2023-03-26T23:44:57.163Z,6.86
2023-03-26T23:47:24.274Z,6.82
2023-03-26T23:49:51.170Z,7.18
2023-03-26T23:52:18.361Z,7.23
2023-03-26T23:54:45.821Z,7.09
2023-03-26T23:57:12.751Z,6.96
2023-03-26T23:59:41.677Z,6.92
